Time;durP1;ratioP1;P1;durP2;ratioP2;P2;SDS_P1;SDS_P2;PMS_P1;PMS_P2;Temp;Humidity;BMP_temperature;BMP_pressure;BME280_temperature;BME280_humidity;BME280_pressure;Samples;Min_cycle;Max_cycle;Signal;HPM_P1;HPM_P2
2022/03/20 00:00:46;;;;;;;18.37;14.30;;;;;;;;;;5108255;28;20534;-70
2022/03/20 00:03:14;;;;;;;20.77;14.03;;;;;;;;;;5109464;28;20475;-72
2022/03/20 00:05:43;;;;;;;22.07;15.63;;;;;;;;;;5109009;28;20540;-71
2022/03/20 00:08:11;;;;;;;22.30;14.00;;;;;;;;;;5109353;28;20974;-72
2022/03/20 00:10:38;;;;;;;19.17;13.90;;;;;;;;;;5109643;28;20475;-72
2022/03/20 00:13:08;;;;;;;21.63;15.40;;;;;;;;;;5108035;28;21092;-72
2022/03/20 00:15:35;;;;;;;19.87;14.63;;;;;;;;;;5106561;28;21254;-73
2022/03/20 00:18:03;;;;;;;22.67;15.90;;;;;;;;;;5106077;28;20928;-72
2022/03/20 00:20:35;;;;;;;21.33;15.77;;;;;;;;;;5102809;28;20451;-68
2022/03/20 00:23:06;;;;;;;16.40;12.27;;;;;;;;;;5108826;28;20450;-71
2022/03/20 00:25:35;;;;;;;22.23;15.30;;;;;;;;;;5099700;28;20463;-69
2022/03/20 00:28:02;;;;;;;23.17;15.00;;;;;;;;;;5106129;28;20479;-70
2022/03/20 00:30:29;;;;;;;21.10;17.17;;;;;;;;;;5108018;28;20876;-70
2022/03/20 00:32:57;;;;;;;21.27;14.67;;;;;;;;;;5104918;28;20454;-70
2022/03/20 00:35:24;;;;;;;20.17;15.03;;;;;;;;;;5097299;28;20540;-69
2022/03/20 00:37:51;;;;;;;25.80;16.43;;;;;;;;;;5104746;28;20444;-70
2022/03/20 00:40:20;;;;;;;19.07;14.10;;;;;;;;;;5106487;28;20907;-70
2022/03/20 00:42:47;;;;;;;21.47;15.73;;;;;;;;;;5100198;28;20532;-69
2022/03/20 00:45:14;;;;;;;22.70;14.97;;;;;;;;;;5104666;28;20464;-70
2022/03/20 00:47:42;;;;;;;19.43;13.83;;;;;;;;;;5104622;28;20486;-70
2022/03/20 00:50:09;;;;;;;19.60;13.77;;;;;;;;;;5106263;28;20450;-69
2022/03/20 00:52:37;;;;;;;27.00;16.00;;;;;;;;;;5099308;28;20877;-69
2022/03/20 00:55:04;;;;;;;21.00;15.03;;;;;;;;;;5109109;28;20507;-70
2022/03/20 00:57:33;;;;;;;21.00;15.63;;;;;;;;;;5106707;28;20459;-69
2022/03/20 01:00:00;;;;;;;21.17;14.47;;;;;;;;;;5107770;28;20455;-70
2022/03/20 01:02:27;;;;;;;18.47;15.00;;;;;;;;;;5102652;28;20916;-69
2022/03/20 01:04:54;;;;;;;17.60;13.53;;;;;;;;;;5100093;28;20473;-69
2022/03/20 01:07:21;;;;;;;19.33;13.03;;;;;;;;;;5105344;28;20552;-70
2022/03/20 01:09:49;;;;;;;22.00;14.07;;;;;;;;;;5107791;28;20548;-71
2022/03/20 01:12:16;;;;;;;22.33;16.20;;;;;;;;;;5108592;28;20448;-71
2022/03/20 01:14:44;;;;;;;19.93;13.50;;;;;;;;;;5098912;28;20537;-72
2022/03/20 01:17:11;;;;;;;23.07;15.93;;;;;;;;;;5102328;28;20560;-73
2022/03/20 01:19:39;;;;;;;27.10;16.43;;;;;;;;;;5103434;28;20889;-71
2022/03/20 01:22:06;;;;;;;20.90;14.67;;;;;;;;;;5102617;28;20487;-70
2022/03/20 01:24:33;;;;;;;28.40;16.00;;;;;;;;;;5103437;28;20462;-70
2022/03/20 01:27:00;;;;;;;17.97;13.03;;;;;;;;;;5098381;28;20453;-71
2022/03/20 01:29:28;;;;;;;22.93;14.70;;;;;;;;;;5102000;28;20483;-72
2022/03/20 01:31:56;;;;;;;20.47;15.20;;;;;;;;;;5108630;28;20476;-71
2022/03/20 01:34:24;;;;;;;22.53;14.50;;;;;;;;;;5098657;28;20464;-71
2022/03/20 01:36:51;;;;;;;24.40;13.80;;;;;;;;;;5097163;28;20531;-71
2022/03/20 01:39:18;;;;;;;21.73;13.90;;;;;;;;;;5106665;28;20454;-71
2022/03/20 01:41:47;;;;;;;21.20;13.27;;;;;;;;;;5108986;28;20478;-72
2022/03/20 01:44:14;;;;;;;21.20;14.80;;;;;;;;;;5109284;28;20530;-70
2022/03/20 01:46:41;;;;;;;20.00;13.73;;;;;;;;;;5105029;28;20949;-71
2022/03/20 01:49:10;;;;;;;22.53;14.07;;;;;;;;;;5101132;28;20473;-71
2022/03/20 01:54:22;;;;;;;19.03;13.70;;;;;;;;;;5091652;28;20555;-71
2022/03/20 01:56:50;;;;;;;22.00;14.70;;;;;;;;;;5101986;28;20520;-71
2022/03/20 01:59:17;;;;;;;16.83;12.90;;;;;;;;;;5108102;28;20488;-72
2022/03/20 02:01:45;;;;;;;20.20;14.87;;;;;;;;;;5102928;28;20491;-72
2022/03/20 02:04:15;;;;;;;19.20;14.17;;;;;;;;;;5109621;28;20529;-73
2022/03/20 02:06:43;;;;;;;22.97;15.80;;;;;;;;;;5105485;28;20435;-72
2022/03/20 02:09:10;;;;;;;24.87;15.93;;;;;;;;;;5105680;28;20478;-71
2022/03/20 02:11:37;;;;;;;21.67;13.70;;;;;;;;;;5106165;28;20550;-72
2022/03/20 02:14:06;;;;;;;21.03;14.80;;;;;;;;;;5106435;28;20455;-71
2022/03/20 02:16:33;;;;;;;20.37;14.17;;;;;;;;;;5104556;28;20512;-72
2022/03/20 02:19:00;;;;;;;19.90;14.17;;;;;;;;;;5102298;28;20579;-72
2022/03/20 02:21:39;;;;;;;18.73;14.30;;;;;;;;;;5102113;28;20502;-69
2022/03/20 02:24:06;;;;;;;23.63;13.40;;;;;;;;;;5102239;28;20820;-74
2022/03/20 02:26:34;;;;;;;21.10;13.63;;;;;;;;;;5103462;28;20443;-72
2022/03/20 02:29:04;;;;;;;20.90;13.67;;;;;;;;;;5098920;28;20471;-73
2022/03/20 02:31:31;;;;;;;20.40;13.67;;;;;;;;;;5102046;28;20743;-71
2022/03/20 02:33:59;;;;;;;21.93;13.80;;;;;;;;;;5105855;28;20504;-72
2022/03/20 02:36:26;;;;;;;20.13;13.40;;;;;;;;;;5102605;28;20465;-71
2022/03/20 02:38:54;;;;;;;20.50;14.00;;;;;;;;;;5096078;28;20825;-71
2022/03/20 02:41:22;;;;;;;20.80;13.83;;;;;;;;;;5101212;28;20813;-72
2022/03/20 02:43:50;;;;;;;19.83;14.00;;;;;;;;;;5102315;28;20462;-70
2022/03/20 02:46:18;;;;;;;18.27;14.27;;;;;;;;;;5108411;28;20801;-72
2022/03/20 02:48:46;;;;;;;19.77;14.50;;;;;;;;;;5113213;28;20478;-72
2022/03/20 02:51:15;;;;;;;19.70;14.47;;;;;;;;;;5108368;28;20450;-70
2022/03/20 02:53:42;;;;;;;25.23;13.20;;;;;;;;;;5100338;28;20490;-71
2022/03/20 02:56:11;;;;;;;23.37;14.10;;;;;;;;;;5107601;28;20559;-70
2022/03/20 02:58:38;;;;;;;20.33;13.60;;;;;;;;;;5111557;28;20446;-72
2022/03/20 03:01:06;;;;;;;21.33;15.30;;;;;;;;;;5096092;28;20452;-72
2022/03/20 03:03:33;;;;;;;21.87;14.87;;;;;;;;;;5098456;28;20451;-72
2022/03/20 03:06:06;;;;;;;18.50;14.90;;;;;;;;;;5113669;28;20526;-72
2022/03/20 03:11:20;;;;;;;21.20;14.30;;;;;;;;;;5112546;28;21296;-71
2022/03/20 03:13:47;;;;;;;18.53;13.63;;;;;;;;;;5111392;28;20562;-70
2022/03/20 03:16:15;;;;;;;20.23;14.00;;;;;;;;;;5109722;28;20927;-70
2022/03/20 03:18:44;;;;;;;19.00;14.00;;;;;;;;;;5112249;28;20509;-71
2022/03/20 03:21:12;;;;;;;26.20;14.13;;;;;;;;;;5113737;28;20505;-71
2022/03/20 03:23:39;;;;;;;19.50;14.47;;;;;;;;;;5112384;28;20499;-71
2022/03/20 03:26:07;;;;;;;18.70;13.70;;;;;;;;;;5102267;28;20508;-71
2022/03/20 03:28:36;;;;;;;19.03;14.27;;;;;;;;;;5102493;28;20557;-72
2022/03/20 03:31:05;;;;;;;19.33;13.50;;;;;;;;;;5113117;28;20497;-72
2022/03/20 03:33:32;;;;;;;18.00;13.07;;;;;;;;;;5096031;28;20443;-75
2022/03/20 03:35:58;;;;;;;20.20;13.63;;;;;;;;;;5103576;28;20441;-74
2022/03/20 03:38:27;;;;;;;16.83;12.63;;;;;;;;;;5093640;28;20490;-75
2022/03/20 03:40:55;;;;;;;26.17;15.30;;;;;;;;;;5109875;28;20551;-71
2022/03/20 03:43:22;;;;;;;19.73;12.70;;;;;;;;;;5107059;28;20447;-72
2022/03/20 03:45:52;;;;;;;23.80;17.97;;;;;;;;;;5109090;28;20532;-78
2022/03/20 03:48:19;;;;;;;24.20;14.80;;;;;;;;;;5113243;28;20993;-73
2022/03/20 03:50:47;;;;;;;20.97;12.57;;;;;;;;;;5110521;28;20863;-71
2022/03/20 03:53:15;;;;;;;20.93;14.13;;;;;;;;;;5103491;28;20444;-71
2022/03/20 03:55:44;;;;;;;22.40;13.33;;;;;;;;;;5102647;28;20555;-71
2022/03/20 03:58:12;;;;;;;19.57;12.17;;;;;;;;;;5095481;28;20444;-71
2022/03/20 04:00:39;;;;;;;17.70;13.60;;;;;;;;;;5101548;28;20885;-71
2022/03/20 04:03:08;;;;;;;23.23;14.97;;;;;;;;;;5114458;28;20995;-71
2022/03/20 04:05:35;;;;;;;18.30;12.37;;;;;;;;;;5104015;28;20460;-72
2022/03/20 04:08:03;;;;;;;21.93;14.03;;;;;;;;;;5113866;28;20816;-71
2022/03/20 04:10:30;;;;;;;21.57;14.70;;;;;;;;;;5114870;28;20491;-70
2022/03/20 04:12:57;;;;;;;17.13;13.40;;;;;;;;;;5104108;28;20446;-71
2022/03/20 04:15:25;;;;;;;19.70;13.80;;;;;;;;;;5101720;28;20436;-70
2022/03/20 04:17:52;;;;;;;20.83;14.70;;;;;;;;;;5111062;28;20440;-71
2022/03/20 04:20:21;;;;;;;21.13;14.50;;;;;;;;;;5110586;28;20452;-71
2022/03/20 04:25:34;;;;;;;19.67;14.47;;;;;;;;;;5103083;28;20468;-72
2022/03/20 04:28:02;;;;;;;21.70;14.57;;;;;;;;;;5112143;28;20858;-72
2022/03/20 04:30:30;;;;;;;22.17;14.10;;;;;;;;;;5111773;28;20489;-72
2022/03/20 04:32:58;;;;;;;24.47;14.40;;;;;;;;;;5106817;28;20910;-71
2022/03/20 04:35:26;;;;;;;21.77;14.27;;;;;;;;;;5109129;28;20809;-72
2022/03/20 04:37:54;;;;;;;18.77;12.90;;;;;;;;;;5106290;28;20495;-71
2022/03/20 04:40:21;;;;;;;22.57;15.07;;;;;;;;;;5111866;28;20523;-71
2022/03/20 04:42:49;;;;;;;17.23;11.47;;;;;;;;;;5104901;28;20515;-71
2022/03/20 04:45:17;;;;;;;16.70;12.50;;;;;;;;;;5104977;28;20451;-71
2022/03/20 04:58:59;;;;;;;21.60;12.50;;;;;;;;;;5039299;28;20434;-73
2022/03/20 05:01:27;;;;;;;21.73;14.43;;;;;;;;;;5036737;28;21034;-72
2022/03/20 05:03:54;;;;;;;22.70;13.47;;;;;;;;;;5067523;28;20487;-72
2022/03/20 05:06:22;;;;;;;20.63;14.77;;;;;;;;;;5111916;28;20442;-71
2022/03/20 05:08:50;;;;;;;24.53;14.20;;;;;;;;;;5110771;28;20486;-72
2022/03/20 05:14:02;;;;;;;21.67;12.70;;;;;;;;;;5110747;28;20453;-72
2022/03/20 05:16:29;;;;;;;20.43;13.30;;;;;;;;;;5110964;28;20886;-72
2022/03/20 05:18:56;;;;;;;17.63;13.50;;;;;;;;;;5111184;28;20927;-72
2022/03/20 05:21:25;;;;;;;22.90;14.67;;;;;;;;;;5110822;28;20535;-71
2022/03/20 05:23:52;;;;;;;23.47;13.93;;;;;;;;;;5109939;28;20454;-71
2022/03/20 05:26:19;;;;;;;18.93;12.73;;;;;;;;;;5111426;28;20451;-71
2022/03/20 05:28:46;;;;;;;15.57;12.00;;;;;;;;;;5110495;28;20516;-72
2022/03/20 05:31:13;;;;;;;21.10;13.43;;;;;;;;;;5108504;28;20537;-72
2022/03/20 05:33:41;;;;;;;24.03;13.20;;;;;;;;;;5109700;28;20983;-72
2022/03/20 05:36:08;;;;;;;21.30;14.63;;;;;;;;;;5101465;28;20448;-71
2022/03/20 05:38:37;;;;;;;17.30;12.07;;;;;;;;;;5110124;28;20488;-71
2022/03/20 05:43:52;;;;;;;18.20;13.10;;;;;;;;;;5104494;28;20784;-71
2022/03/20 05:46:19;;;;;;;20.77;13.67;;;;;;;;;;5102589;28;20448;-72
2022/03/20 05:48:47;;;;;;;16.83;13.17;;;;;;;;;;5105152;28;20856;-72
2022/03/20 05:51:15;;;;;;;21.33;14.00;;;;;;;;;;5111186;28;20458;-72
2022/03/20 05:53:43;;;;;;;20.60;14.17;;;;;;;;;;5110063;28;20808;-71
2022/03/20 05:58:57;;;;;;;21.83;14.70;;;;;;;;;;5097489;28;20431;-71
2022/03/20 06:01:25;;;;;;;23.90;15.90;;;;;;;;;;5110357;28;20444;-73
2022/03/20 06:03:52;;;;;;;21.50;14.77;;;;;;;;;;5110378;28;20493;-72
2022/03/20 06:06:19;;;;;;;20.63;14.50;;;;;;;;;;5110679;28;20444;-72
2022/03/20 06:08:49;;;;;;;22.70;15.20;;;;;;;;;;5096560;28;20495;-72
2022/03/20 06:11:16;;;;;;;24.90;14.87;;;;;;;;;;5097031;28;20488;-72
2022/03/20 06:13:45;;;;;;;24.40;16.97;;;;;;;;;;5110008;28;20522;-72
2022/03/20 06:16:12;;;;;;;25.43;15.70;;;;;;;;;;5113311;28;20444;-72
2022/03/20 06:18:42;;;;;;;23.23;16.03;;;;;;;;;;5113917;28;20951;-71
2022/03/20 06:21:09;;;;;;;23.03;16.93;;;;;;;;;;5112027;28;20440;-71
2022/03/20 06:23:37;;;;;;;23.70;15.03;;;;;;;;;;5111369;28;20439;-71
2022/03/20 06:26:06;;;;;;;20.53;14.30;;;;;;;;;;5110544;28;20800;-71
2022/03/20 06:28:33;;;;;;;26.23;19.40;;;;;;;;;;5103827;28;20547;-72
2022/03/20 06:31:00;;;;;;;24.10;16.57;;;;;;;;;;5111550;28;20483;-71
2022/03/20 06:33:28;;;;;;;22.53;15.60;;;;;;;;;;5095818;28;20540;-71
2022/03/20 06:35:55;;;;;;;22.20;16.43;;;;;;;;;;5107851;28;20448;-71
2022/03/20 06:38:22;;;;;;;22.27;15.40;;;;;;;;;;5096024;28;20463;-71
2022/03/20 06:40:50;;;;;;;23.50;15.40;;;;;;;;;;5106868;28;20459;-71
2022/03/20 06:43:18;;;;;;;21.57;15.63;;;;;;;;;;5098290;28;20451;-71
2022/03/20 06:45:46;;;;;;;24.60;16.60;;;;;;;;;;5110762;28;20532;-72
2022/03/20 06:48:14;;;;;;;24.63;17.40;;;;;;;;;;5113756;28;20439;-71
2022/03/20 06:50:41;;;;;;;21.07;15.23;;;;;;;;;;5111374;28;20472;-71
2022/03/20 06:53:08;;;;;;;22.00;15.27;;;;;;;;;;5113792;28;20467;-72
2022/03/20 06:55:35;;;;;;;19.63;15.77;;;;;;;;;;5113237;28;20493;-73
2022/03/20 06:58:02;;;;;;;25.90;17.40;;;;;;;;;;5101780;28;20475;-72
2022/03/20 07:00:31;;;;;;;21.30;16.60;;;;;;;;;;5111771;28;20444;-72
2022/03/20 07:02:58;;;;;;;27.60;17.10;;;;;;;;;;5106169;28;20448;-71
2022/03/20 07:05:26;;;;;;;22.67;16.07;;;;;;;;;;5100243;28;20463;-72
2022/03/20 07:07:53;;;;;;;22.07;15.53;;;6.20;99.90;;;;;;5106031;28;20807;-72
2022/03/20 07:10:23;;;;;;;23.77;15.60;;;7.10;99.90;;;;;;5108146;28;20807;-72
2022/03/20 07:12:50;;;;;;;22.80;16.47;;;7.20;99.90;;;;;;5105970;28;20864;-71
2022/03/20 07:15:17;;;;;;;25.50;16.47;;;7.10;99.90;;;;;;5114050;28;20440;-71
2022/03/20 07:17:47;;;;;;;22.90;17.90;;;7.20;99.90;;;;;;5099355;28;20448;-72
2022/03/20 07:20:16;;;;;;;26.87;18.00;;;7.40;99.90;;;;;;5112463;28;20454;-72
2022/03/20 07:22:44;;;;;;;23.90;16.50;;;7.50;99.90;;;;;;5109820;28;20998;-72
2022/03/20 07:30:40;;;;;;;22.03;16.67;;;7.70;99.90;;;;;;5112671;28;20466;-72
2022/03/20 07:33:08;;;;;;;25.23;16.30;;;7.80;99.90;;;;;;5106427;28;20449;-72
2022/03/20 07:35:35;;;;;;;26.10;16.73;;;7.80;99.90;;;;;;5101714;28;20472;-71
2022/03/20 07:38:02;;;;;;;23.10;17.70;;;7.80;99.90;;;;;;5111797;28;20455;-71
2022/03/20 07:40:29;;;;;;;27.43;16.47;;;7.80;99.90;;;;;;5113026;28;20448;-72
2022/03/20 07:42:56;;;;;;;24.87;17.57;;;7.90;99.90;;;;;;5099517;28;20551;-71
2022/03/20 07:45:23;;;;;;;29.40;17.80;;;8.00;99.90;;;;;;5112705;28;20476;-72
2022/03/20 07:47:50;;;;;;;24.00;17.67;;;;;;;;;;5112225;28;20452;-72
2022/03/20 07:50:19;;;;;;;24.77;16.63;;;;;;;;;;5109571;28;20514;-71
2022/03/20 07:52:47;;;;;;;23.83;17.27;;;;;;;;;;5103153;28;20443;-71
2022/03/20 07:55:14;;;;;;;24.23;18.80;;;;;;;;;;5112660;28;20515;-71
2022/03/20 07:57:42;;;;;;;23.37;16.93;;;;;;;;;;5111976;28;20494;-72
2022/03/20 08:00:10;;;;;;;24.97;17.67;;;;;;;;;;5103437;28;20887;-72
2022/03/20 08:02:38;;;;;;;24.50;17.20;;;;;;;;;;5102948;28;20502;-72
2022/03/20 08:05:05;;;;;;;26.57;18.90;;;;;;;;;;5103726;28;20963;-72
2022/03/20 08:07:37;;;;;;;25.27;18.27;;;;;;;;;;5100326;28;20440;-72
2022/03/20 08:10:06;;;;;;;25.83;18.87;;;;;;;;;;5108135;28;20479;-72
2022/03/20 08:12:33;;;;;;;26.20;18.70;;;;;;;;;;5094954;28;20559;-72
2022/03/20 08:15:00;;;;;;;24.33;17.40;;;;;;;;;;5106010;28;20818;-72
2022/03/20 08:17:29;;;;;;;23.70;18.10;;;;;;;;;;5107779;28;20444;-72
2022/03/20 08:19:57;;;;;;;26.83;18.30;;;;;;;;;;5112021;28;20450;-71
2022/03/20 08:22:25;;;;;;;25.20;18.17;;;;;;;;;;5111696;28;20542;-72
2022/03/20 08:24:54;;;;;;;23.13;16.73;;;;;;;;;;5111532;28;20455;-71
2022/03/20 08:27:21;;;;;;;24.07;18.10;;;8.20;99.90;;;;;;5099744;28;20494;-73
2022/03/20 08:29:48;;;;;;;25.90;18.83;;;9.50;99.90;;;;;;5110381;28;20586;-71
2022/03/20 08:32:16;;;;;;;23.43;16.77;;;9.50;99.90;;;;;;5105254;28;20444;-73
2022/03/20 08:34:42;;;;;;;30.10;19.83;;;9.80;99.90;;;;;;5111398;28;20462;-73
2022/03/20 08:37:09;;;;;;;28.70;19.27;;;9.80;99.90;;;;;;5112276;28;20880;-73
2022/03/20 08:39:36;;;;;;;26.40;17.80;;;9.90;99.90;;;;;;5110922;28;20448;-72
2022/03/20 08:42:06;;;;;;;28.50;18.47;;;9.90;99.90;;;;;;5100217;28;20949;-71
2022/03/20 08:44:32;;;;;;;29.10;18.97;;;9.90;99.90;;;;;;5111061;28;20530;-71
2022/03/20 08:47:00;;;;;;;29.40;17.97;;;10.10;99.90;;;;;;5111889;28;20504;-72
2022/03/20 08:49:27;;;;;;;25.37;18.50;;;10.20;99.90;;;;;;5110556;28;20524;-72
2022/03/20 08:51:54;;;;;;;26.53;17.87;;;;;;;;;;5111966;28;20548;-71
2022/03/20 08:54:22;;;;;;;23.93;17.73;;;;;;;;;;5110239;28;20872;-72
2022/03/20 08:56:49;;;;;;;27.13;17.43;;;;;;;;;;5113180;28;20548;-72
2022/03/20 08:59:17;;;;;;;24.50;17.73;;;;;;;;;;5106245;28;20445;-72
2022/03/20 09:01:44;;;;;;;24.73;16.80;;;;;;;;;;5109452;28;20944;-73
2022/03/20 09:04:12;;;;;;;24.50;17.20;;;;;;;;;;5111897;28;20448;-72
2022/03/20 09:06:43;;;;;;;23.77;17.60;;;;;;;;;;5109695;28;20803;-73
2022/03/20 09:09:13;;;;;;;21.00;16.30;;;;;;;;;;5107088;28;20523;-73
2022/03/20 09:11:41;;;;;;;25.47;16.77;;;;;;;;;;5106731;28;20591;-71
2022/03/20 09:14:08;;;;;;;30.03;16.93;;;;;;;;;;5101838;28;20451;-72
2022/03/20 09:19:22;;;;;;;21.73;15.10;;;;;;;;;;5103165;28;20450;-72
2022/03/20 09:21:49;;;;;;;21.17;15.53;;;;;;;;;;5105936;28;20538;-72
2022/03/20 09:24:17;;;;;;;21.13;15.90;;;;;;;;;;5111032;28;20483;-72
2022/03/20 09:26:45;;;;;;;19.83;14.60;;;;;;;;;;5097447;28;20501;-72
2022/03/20 09:29:14;;;;;;;24.00;17.83;;;;;;;;;;5111460;28;20455;-73
2022/03/20 09:31:42;;;;;;;20.80;15.00;;;;;;;;;;5103713;28;20548;-73
2022/03/20 09:34:09;;;;;;;24.20;17.00;;;;;;;;;;5110061;28;20440;-71
2022/03/20 09:36:37;;;;;;;18.27;14.00;;;;;;;;;;5107637;28;20451;-73
2022/03/20 09:39:05;;;;;;;20.80;14.87;;;;;;;;;;5111347;28;20455;-72
2022/03/20 09:41:34;;;;;;;21.40;15.70;;;;;;;;;;5097900;28;20449;-72
2022/03/20 09:44:05;;;;;;;20.33;14.93;;;;;;;;;;5106027;28;20451;-72
2022/03/20 09:46:32;;;;;;;21.50;15.00;;;;;;;;;;5098149;28;20447;-72
2022/03/20 09:49:02;;;;;;;21.47;14.53;;;;;;;;;;5102083;28;20501;-78
2022/03/20 09:51:29;;;;;;;19.60;14.97;;;;;;;;;;5113372;28;20876;-72
2022/03/20 09:53:57;;;;;;;21.00;14.20;;;;;;;;;;5101281;28;20447;-71
2022/03/20 09:56:24;;;;;;;17.00;13.60;;;;;;;;;;5105028;28;20509;-69
2022/03/20 09:58:51;;;;;;;20.60;14.53;;;;;;;;;;5114456;28;20455;-73
2022/03/20 10:01:19;;;;;;;20.47;14.90;;;;;;;;;;5113986;28;20443;-71
2022/03/20 10:03:46;;;;;;;19.93;15.20;;;;;;;;;;5100630;28;20444;-71
2022/03/20 10:06:16;;;;;;;17.40;12.97;;;;;;;;;;5114676;28;20447;-71
2022/03/20 10:09:03;;;;;;;22.17;15.20;;;;;;;;;;5106449;28;20888;-74
2022/03/20 10:11:30;;;;;;;21.50;15.90;;;;;;;;;;5112482;28;20459;-71
2022/03/20 10:14:10;;;;;;;21.70;14.70;;;;;;;;;;5113111;28;20458;-71
2022/03/20 10:16:38;;;;;;;17.90;14.03;;;;;;;;;;5113187;28;20439;-71
2022/03/20 10:19:27;;;;;;;19.10;14.30;;;;;;;;;;5114209;28;21113;-71
2022/03/20 10:21:57;;;;;;;21.20;14.73;;;;;;;;;;5106277;28;20530;-70
2022/03/20 10:24:26;;;;;;;19.50;14.60;;;;;;;;;;5112659;28;20448;-70
2022/03/20 10:26:54;;;;;;;20.70;14.93;;;;;;;;;;5109297;28;20449;-71
2022/03/20 10:29:21;;;;;;;21.57;13.87;;;;;;;;;;5112612;28;20487;-70
2022/03/20 10:31:50;;;;;;;18.80;14.10;;;;;;;;;;5101913;28;20625;-70
2022/03/20 10:34:18;;;;;;;20.33;15.03;;;;;;;;;;5109061;28;20455;-69
2022/03/20 10:36:45;;;;;;;16.03;13.80;;;;;;;;;;5109494;28;20939;-69
2022/03/20 10:39:15;;;;;;;19.07;13.37;;;;;;;;;;5101195;28;20440;-68
2022/03/20 10:41:45;;;;;;;19.50;14.47;;;;;;;;;;5103573;28;20448;-69
2022/03/20 10:44:14;;;;;;;20.10;13.97;;;;;;;;;;5102101;28;20515;-69
2022/03/20 10:46:41;;;;;;;16.40;13.53;;;;;;;;;;5112261;28;20447;-69
2022/03/20 10:49:09;;;;;;;20.27;14.30;;;;;;;;;;5104124;28;20504;-71
2022/03/20 10:51:41;;;;;;;19.67;14.80;;;;;;;;;;5112746;28;20471;-71
2022/03/20 10:54:10;;;;;;;15.53;13.63;;;;;;;;;;5111172;28;20463;-70
2022/03/20 10:56:38;;;;;;;22.07;13.30;;;;;;;;;;5105758;28;20527;-71
2022/03/20 10:59:15;;;;;;;21.83;14.47;;;;;;;;;;5107370;28;20444;-69
2022/03/20 11:01:44;;;;;;;19.47;13.40;;;;;;;;;;5105923;28;20462;-68
2022/03/20 11:04:13;;;;;;;17.87;13.83;;;;;;;;;;5107356;28;20786;-71
2022/03/20 11:06:42;;;;;;;20.20;13.40;;;;;;;;;;5110327;28;20443;-71
2022/03/20 11:09:09;;;;;;;20.07;15.00;;;;;;;;;;5108925;28;20870;-71
2022/03/20 11:11:39;;;;;;;17.30;13.13;;;;;;;;;;5109196;28;20512;-73
2022/03/20 11:14:10;;;;;;;20.23;13.70;;;;;;;;;;5106380;28;20475;-73
2022/03/20 11:16:38;;;;;;;18.27;12.70;;;;;;;;;;5109078;28;20483;-71
2022/03/20 11:19:06;;;;;;;23.00;13.97;;;;;;;;;;5105873;28;20451;-73
2022/03/20 11:21:36;;;;;;;23.80;13.10;;;;;;;;;;5097731;28;20472;-73
2022/03/20 11:24:04;;;;;;;17.73;13.20;;;;;;;;;;5106793;28;20455;-72
2022/03/20 11:26:33;;;;;;;18.20;12.47;;;;;;;;;;5112114;28;20442;-73
2022/03/20 11:29:01;;;;;;;17.57;12.07;;;;;;;;;;5106632;28;20440;-73
2022/03/20 11:31:33;;;;;;;16.00;11.50;;;;;;;;;;5102678;28;20514;-72
2022/03/20 11:34:01;;;;;;;18.97;11.60;;;;;;;;;;5101905;28;20924;-73
2022/03/20 11:36:28;;;;;;;17.43;10.07;;;;;;;;;;5113504;28;20493;-71
2022/03/20 11:39:11;;;;;;;16.80;11.30;;;;;;;;;;5109451;28;20436;-71
2022/03/20 11:41:39;;;;;;;14.40;10.90;;;;;;;;;;5104047;28;20441;-72
2022/03/20 11:44:16;;;;;;;18.30;11.20;;;;;;;;;;5113178;28;20501;-72
2022/03/20 11:46:45;;;;;;;15.40;12.17;;;;;;;;;;5108945;28;20446;-72
2022/03/20 11:49:22;;;;;;;13.00;10.60;;;;;;;;;;5105582;28;20444;-73
2022/03/20 11:51:53;;;;;;;11.20;8.90;;;;;;;;;;5111029;28;20593;-74
2022/03/20 11:54:20;;;;;;;14.80;10.40;;;;;;;;;;5109207;28;20478;-73
2022/03/20 11:56:48;;;;;;;14.83;9.63;;;;;;;;;;5112095;28;21101;-71
2022/03/20 11:59:30;;;;;;;11.93;9.93;;;;;;;;;;5112329;28;20455;-71
2022/03/20 12:02:02;;;;;;;16.37;11.20;;;;;;;;;;5109384;28;20474;-73
2022/03/20 12:04:35;;;;;;;17.17;10.67;;;;;;;;;;5112776;28;20526;-72
2022/03/20 12:07:11;;;;;;;13.13;10.40;;;;;;;;;;5113103;28;20519;-73
2022/03/20 12:09:42;;;;;;;13.03;10.07;;;;;;;;;;5107341;28;20487;-73
2022/03/20 12:12:16;;;;;;;14.60;10.60;;;;;;;;;;5102704;28;20475;-73
2022/03/20 12:14:44;;;;;;;15.60;10.00;;;;;;;;;;5100223;28;20532;-72
2022/03/20 12:17:13;;;;;;;15.67;9.47;;;;;;;;;;5093775;28;20539;-73
2022/03/20 12:19:42;;;;;;;14.70;10.50;;;;;;;;;;5106984;28;20531;-72
2022/03/20 12:22:14;;;;;;;14.97;10.70;;;;;;;;;;5109536;28;20487;-72
2022/03/20 12:24:55;;;;;;;13.93;9.67;;;;;;;;;;5096635;28;20963;-72
2022/03/20 12:27:41;;;;;;;12.47;10.00;;;;;;;;;;5110110;28;20447;-72
2022/03/20 12:30:27;;;;;;;17.40;11.17;;;;;;;;;;5107727;28;20455;-73
2022/03/20 12:32:57;;;;;;;14.80;10.10;;;;;;;;;;5092701;28;20484;-71
2022/03/20 12:35:25;;;;;;;15.20;7.13;;;;;;;;;;5107613;28;20452;-72
2022/03/20 12:37:53;;;;;;;8.80;7.20;;;;;;;;;;5108598;28;20440;-71
2022/03/20 12:40:21;;;;;;;9.60;7.90;;;;;;;;;;5100355;28;20451;-71
2022/03/20 12:42:56;;;;;;;13.37;9.33;;;;;;;;;;5107157;28;20455;-70
2022/03/20 12:45:24;;;;;;;11.93;8.57;;;;;;;;;;5110961;28;20476;-71
2022/03/20 12:47:56;;;;;;;12.20;9.67;;;;;;;;;;5109254;28;20443;-73
2022/03/20 12:50:25;;;;;;;13.57;8.10;;;;;;;;;;5109394;28;20439;-73
2022/03/20 12:52:55;;;;;;;11.67;8.60;;;;;;;;;;5097674;28;20487;-73
2022/03/20 12:55:27;;;;;;;15.53;9.60;;;;;;;;;;5104370;28;20587;-73
2022/03/20 12:57:54;;;;;;;12.00;9.70;;;;;;;;;;5100836;28;20456;-72
2022/03/20 13:00:23;;;;;;;13.07;9.37;;;10.40;99.90;;;;;;5101611;28;20941;-72
2022/03/20 13:03:07;;;;;;;17.03;10.03;;;18.20;17.10;;;;;;5098329;28;20870;-74
2022/03/20 13:05:38;;;;;;;11.37;9.77;;;18.10;16.00;;;;;;5106421;28;20783;-73
2022/03/20 13:08:05;;;;;;;14.20;9.70;;;18.20;15.60;;;;;;5105298;28;20567;-71
2022/03/20 13:10:36;;;;;;;12.63;10.33;;;18.40;16.00;;;;;;5097582;28;20490;-71
2022/03/20 13:13:05;;;;;;;13.13;7.97;;;18.30;14.60;;;;;;5101659;28;20495;-73
2022/03/20 13:15:33;;;;;;;10.47;8.83;;;18.20;13.30;;;;;;5100410;28;20451;-72
2022/03/20 13:18:02;;;;;;;14.73;8.10;;;18.20;10.30;;;;;;5104762;28;20448;-73
2022/03/20 13:20:32;;;;;;;9.73;8.50;;;18.60;10.60;;;;;;5108520;28;20517;-71
2022/03/20 13:23:06;;;;;;;11.93;9.37;;;18.70;9.30;;;;;;5104557;28;20943;-75
2022/03/20 13:25:33;;;;;;;11.53;10.33;;;18.60;6.90;;;;;;5102109;28;20478;-73
2022/03/20 13:28:00;;;;;;;16.57;9.00;;;18.50;4.30;;;;;;5100420;28;21035;-71
2022/03/20 13:30:34;;;;;;;11.13;9.83;;;18.00;3.20;;;;;;5091736;28;20960;-71
2022/03/20 13:33:03;;;;;;;13.80;9.87;;;18.10;1.90;;;;;;5108483;28;20830;-72
2022/03/20 13:35:31;;;;;;;14.00;10.70;;;17.90;1.80;;;;;;5108374;28;20486;-73
2022/03/20 13:37:59;;;;;;;13.77;10.80;;;18.00;1.40;;;;;;5108386;28;20475;-71
2022/03/20 13:40:28;;;;;;;13.90;10.53;;;18.10;1.40;;;;;;5095311;28;20526;-72
2022/03/20 13:42:55;;;;;;;19.10;10.53;;;18.20;1.80;;;;;;5094424;28;20859;-72
2022/03/20 13:45:24;;;;;;;12.60;9.10;;;18.60;1.00;;;;;;5104212;28;20443;-72
2022/03/20 13:47:52;;;;;;;11.07;8.57;;;19.00;1.00;;;;;;5107158;28;20459;-72
2022/03/20 13:50:21;;;;;;;14.23;9.43;;;18.70;1.00;;;;;;5106785;28;20452;-72
2022/03/20 13:52:51;;;;;;;9.43;7.70;;;18.80;1.00;;;;;;5098755;28;20471;-74
2022/03/20 13:55:19;;;;;;;12.80;10.13;;;19.00;1.00;;;;;;5108102;28;20483;-74
2022/03/20 13:57:52;;;;;;;14.73;11.37;;;19.10;1.00;;;;;;5107533;28;21265;-73
2022/03/20 14:00:23;;;;;;;14.93;10.23;;;19.00;1.00;;;;;;5108409;28;20974;-73
2022/03/20 14:02:51;;;;;;;12.20;10.47;;;18.80;1.00;;;;;;5102446;28;21173;-70
2022/03/20 14:05:25;;;;;;;14.47;10.30;;;18.40;1.00;;;;;;5103385;28;20579;-74
2022/03/20 14:08:09;;;;;;;15.33;10.30;;;18.30;1.00;;;;;;5096758;28;20447;-74
2022/03/20 14:10:46;;;;;;;14.47;10.90;;;18.30;1.00;;;;;;5093986;28;20539;-73
2022/03/20 14:13:21;;;;;;;17.10;10.90;;;18.40;1.00;;;;;;5103894;28;20558;-73
2022/03/20 14:16:02;;;;;;;14.43;10.43;;;18.40;1.00;;;;;;5108139;28;20522;-72
2022/03/20 14:18:30;;;;;;;13.30;10.50;;;18.50;1.00;;;;;;5106287;28;20444;-72
2022/03/20 14:21:12;;;;;;;15.20;10.50;;;18.50;1.00;;;;;;5108272;28;20452;-72
2022/03/20 14:23:56;;;;;;;15.83;10.40;;;18.50;1.00;;;;;;5106225;28;20542;-72
2022/03/20 14:26:24;;;;;;;12.73;9.70;;;18.40;1.00;;;;;;5100936;28;20454;-74
2022/03/20 14:29:02;;;;;;;12.53;10.63;;;18.90;1.00;;;;;;5096470;28;20450;-71
2022/03/20 14:39:45;;;;;;;13.70;9.80;;;18.50;1.00;;;;;;5100523;28;20477;-74
2022/03/20 14:42:28;;;;;;;16.13;10.33;;;18.90;1.00;;;;;;5104297;28;20472;-72
2022/03/20 14:44:56;;;;;;;20.43;10.10;;;18.60;1.00;;;;;;5106013;28;20439;-72
2022/03/20 14:47:25;;;;;;;13.77;10.70;;;19.00;1.00;;;;;;5108194;28;20455;-73
2022/03/20 14:49:54;;;;;;;14.43;9.50;;;18.90;1.00;;;;;;5111096;28;20475;-73